Time;durP1;ratioP1;P1;durP2;ratioP2;P2;SDS_P1;SDS_P2;PMS_P1;PMS_P2;Temp;Humidity;BMP_temperature;BMP_pressure;BME280_temperature;BME280_humidity;BME280_pressure;Samples;Min_cycle;Max_cycle;Signal;HPM_P1;HPM_P2
2023/03/31 00:01:26;;;;;;;2.63;1.67;;;;;;;9.83;58.66;101301.78;4974617;28;20030;-83
2023/03/31 00:04:00;;;;;;;1.38;0.93;;;;;;;9.91;57.73;101301.53;4990904;28;20455;-83
2023/03/31 00:06:26;;;;;;;1.67;1.35;;;;;;;9.92;57.42;101308.38;4990666;28;20035;-84
2023/03/31 00:08:52;;;;;;;1.33;1.23;;;;;;;9.91;57.59;101297.19;4990491;28;20034;-84
2023/03/31 00:11:18;;;;;;;2.42;1.42;;;;;;;10.00;56.57;101307.22;4991004;28;20081;-86
2023/03/31 00:13:44;;;;;;;4.63;1.52;;;;;;;9.90;57.97;101290.34;4974278;28;20030;-84
2023/03/31 00:16:09;;;;;;;2.53;1.45;;;;;;;10.04;57.15;101301.06;4974445;28;20031;-84
2023/03/31 00:18:35;;;;;;;3.20;1.65;;;;;;;9.91;56.97;101293.78;4958374;28;20121;-84
2023/03/31 00:21:23;;;;;;;2.35;1.45;;;;;;;9.96;57.35;101297.91;4958008;28;20026;-84
2023/03/31 00:23:56;;;;;;;5.28;2.28;;;;;;;9.92;57.21;101282.53;4990717;28;20496;-84
2023/03/31 00:26:22;;;;;;;1.63;1.20;;;;;;;9.87;57.07;101295.63;4990367;28;20388;-84
2023/03/31 00:28:48;;;;;;;2.40;1.58;;;;;;;9.88;57.72;101299.91;4958256;28;20019;-84
2023/03/31 00:31:14;;;;;;;1.63;1.48;;;;;;;9.89;58.38;101304.16;4974030;28;20030;-84
2023/03/31 00:33:39;;;;;;;3.03;1.20;;;;;;;9.96;58.29;101307.41;4974080;28;20034;-84
2023/03/31 00:36:05;;;;;;;1.40;1.13;;;;;;;9.87;59.01;101292.22;4989758;28;20058;-84
2023/03/31 00:38:31;;;;;;;2.42;1.73;;;;;;;9.77;59.53;101302.03;4974250;28;20033;-84
2023/03/31 00:40:57;;;;;;;2.42;1.88;;;;;;;9.61;60.30;101272.44;4974161;28;20027;-84
2023/03/31 00:43:33;;;;;;;5.72;2.00;;;;;;;9.80;61.52;101294.16;4990311;28;20037;-84
2023/03/31 00:46:16;;;;;;;3.25;1.40;;;;;;;9.83;61.67;101306.97;4974287;28;20027;-84
2023/03/31 00:48:56;;;;;;;2.15;1.23;;;;;;;9.83;61.22;101294.03;4958279;28;20042;-84
2023/03/31 00:51:21;;;;;;;2.47;1.60;;;;;;;9.78;63.04;101275.28;4958569;28;20144;-84
2023/03/31 00:53:54;;;;;;;1.05;0.90;;;;;;;9.83;61.67;101282.84;4957868;28;20027;-84
2023/03/31 00:56:19;;;;;;;1.95;1.35;;;;;;;9.84;62.73;101271.66;4974912;28;20037;-85
2023/03/31 00:58:46;;;;;;;1.65;1.38;;;;;;;9.92;61.79;101290.28;4989882;28;20121;-84
2023/03/31 01:01:16;;;;;;;2.15;1.15;;;;;;;9.84;61.17;101259.56;4974091;28;20515;-84
2023/03/31 01:03:44;;;;;;;2.28;1.25;;;;;;;9.65;62.33;101248.19;4958183;28;20094;-85
2023/03/31 01:06:10;;;;;;;1.50;1.15;;;;;;;9.49;61.88;101222.88;4978414;28;20034;-84
2023/03/31 01:08:35;;;;;;;2.20;1.67;;;;;;;9.85;63.21;101276.75;4977885;28;20101;-84
2023/03/31 01:11:03;;;;;;;3.55;1.08;;;;;;;9.85;63.06;101276.75;4961882;28;20428;-84
2023/03/31 01:13:29;;;;;;;2.15;1.73;;;;;;;9.95;64.19;101265.19;4977970;28;20023;-84
2023/03/31 01:15:55;;;;;;;6.38;2.67;;;;;;;9.90;62.54;101264.50;4994027;28;20109;-84
2023/03/31 01:18:20;;;;;;;6.15;2.15;;;;;;;9.95;63.07;101264.34;4961344;28;20033;-84
2023/03/31 01:21:29;;;;;;;3.28;2.60;;;;;;;10.00;63.57;101260.69;4977517;28;20045;-85
2023/03/31 01:24:13;;;;;;;1.70;1.48;;;;;;;9.95;65.02;101254.00;4994036;28;20480;-84
2023/03/31 01:27:03;;;;;;;3.45;2.00;;;;;;;9.87;65.60;101259.44;4995293;28;20538;-84
2023/03/31 01:29:42;;;;;;;2.58;1.40;;;;;;;9.81;66.79;101254.50;5010057;28;20045;-84
2023/03/31 01:32:32;;;;;;;3.42;2.22;;;;;;;9.87;66.29;101249.13;4994677;28;20506;-85
2023/03/31 01:35:09;;;;;;;3.53;1.92;;;;;;;9.83;66.92;101247.53;4994232;28;20065;-84
2023/03/31 01:38:12;;;;;;;2.60;1.75;;;;;;;9.82;68.40;101252.75;4994683;28;20030;-85
2023/03/31 01:41:02;;;;;;;2.95;1.88;;;;;;;9.76;70.20;101243.50;4994537;28;20026;-84
2023/03/31 01:43:47;;;;;;;2.90;1.75;;;;;;;9.62;72.08;101222.44;4993729;28;20028;-83
2023/03/31 01:46:30;;;;;;;2.30;1.80;;;;;;;9.67;70.89;101215.41;4961350;28;20026;-84
2023/03/31 01:48:59;;;;;;;1.92;1.55;;;;;;;9.66;73.22;101230.06;4993150;28;20027;-84
2023/03/31 01:51:33;;;;;;;1.77;1.25;;;;;;;9.57;73.14;101208.88;5009384;28;20077;-84
2023/03/31 01:54:20;;;;;;;2.63;1.55;;;;;;;9.54;74.10;101214.13;4993452;28;20428;-84
2023/03/31 01:56:48;;;;;;;5.03;2.53;;;;;;;9.58;74.34;101226.06;4962291;28;20026;-84
2023/03/31 01:59:21;;;;;;;1.80;1.42;;;;;;;9.48;75.41;101207.44;4977294;28;20018;-84
2023/03/31 02:01:50;;;;;;;3.40;1.77;;;;;;;9.48;75.35;101199.69;4960878;28;20026;-84
2023/03/31 02:04:24;;;;;;;5.18;2.35;;;;;;;9.39;75.53;101175.03;4977352;28;20105;-84
2023/03/31 02:06:55;;;;;;;4.03;2.13;;;;;;;9.35;75.88;101183.81;4977215;28;20057;-84
2023/03/31 02:09:24;;;;;;;3.33;1.45;;;;;;;9.45;76.65;101195.50;4976991;28;20027;-84
2023/03/31 02:11:50;;;;;;;2.58;2.13;;;;;;;9.57;76.31;101214.03;4960983;28;20030;-84
2023/03/31 02:14:20;;;;;;;1.80;1.58;;;;;;;9.51;76.75;101209.06;4976672;28;20526;-84
2023/03/31 02:16:46;;;;;;;2.55;1.90;;;;;;;9.44;76.73;101209.31;4976584;28;20034;-84
2023/03/31 02:19:12;;;;;;;2.70;2.17;;;;;;;9.50;76.06;101203.06;4976649;28;20042;-84
2023/03/31 02:21:38;;;;;;;2.75;2.15;;;;;;;9.60;75.87;101213.91;4976762;28;20022;-84
2023/03/31 02:24:06;;;;;;;2.35;2.00;;;;;;;9.61;76.07;101218.19;4960399;28;20038;-84
2023/03/31 02:26:35;;;;;;;3.70;2.55;;;;;;;9.46;77.52;101192.00;4992947;28;20031;-84
2023/03/31 02:29:00;;;;;;;2.42;2.22;;;;;;;9.63;78.19;101213.81;4976834;28;20034;-84
2023/03/31 02:32:05;;;;;;;2.25;1.73;;;;;;;9.67;77.71;101205.06;4992641;28;20030;-84
2023/03/31 02:34:31;;;;;;;2.97;2.17;;;;;;;9.58;78.41;101195.91;4992118;28;20506;-84
2023/03/31 02:36:56;;;;;;;3.03;1.73;;;;;;;9.69;78.09;101198.94;4976377;28;20026;-84
2023/03/31 02:39:27;;;;;;;2.83;1.88;;;;;;;9.74;77.94;101203.94;4960158;28;20595;-84
2023/03/31 02:41:53;;;;;;;2.53;2.08;;;;;;;9.69;78.28;101205.84;4976102;28;20041;-84
2023/03/31 02:44:18;;;;;;;4.32;2.42;;;;;;;9.63;77.32;101208.63;4960047;28;20027;-84
2023/03/31 02:46:44;;;;;;;2.78;1.95;;;;;;;9.48;77.78;101176.47;4959726;28;20030;-84
2023/03/31 02:49:09;;;;;;;3.33;2.38;;;;;;;9.39;77.95;101162.13;4960099;28;20030;-84
2023/03/31 02:52:01;;;;;;;5.22;1.88;;;;;;;9.70;77.50;101199.78;4976387;28;20034;-84
2023/03/31 02:55:00;;;;;;;3.72;2.10;;;;;;;9.69;77.40;101187.75;4992112;28;20133;-84
2023/03/31 02:57:50;;;;;;;4.07;2.17;;;;;;;9.66;77.71;101193.03;4993391;28;20034;-86
2023/03/31 03:00:37;;;;;;;1.95;1.58;;;;;;;9.80;73.89;101180.44;5007712;28;20093;-86
2023/03/31 03:03:14;;;;;;;3.08;2.15;;;;;;;9.75;75.46;101187.53;4993271;28;20031;-85
2023/03/31 03:05:53;;;;;;;2.72;2.20;;;;;;;9.71;77.41;101180.78;4993223;28;20026;-85
2023/03/31 03:08:22;;;;;;;2.80;2.20;;;;;;;9.78;78.80;101177.94;5008211;28;20034;-86
2023/03/31 03:10:53;;;;;;;2.58;2.20;;;;;;;9.68;78.84;101155.06;5008097;28;20030;-85
2023/03/31 03:13:34;;;;;;;3.30;2.00;;;;;;;9.80;78.42;101172.69;4992958;28;20508;-85
2023/03/31 03:16:05;;;;;;;2.80;1.67;;;;;;;9.42;78.17;101100.03;4993167;28;20123;-85
2023/03/31 03:18:30;;;;;;;2.67;2.15;;;;;;;9.68;77.54;101150.75;4975936;28;20026;-85
2023/03/31 03:20:56;;;;;;;2.92;2.22;;;;;;;9.58;77.90;101135.66;4959423;28;20538;-86
2023/03/31 03:23:21;;;;;;;2.63;2.42;;;;;;;9.60;77.91;101146.75;4991652;28;20035;-86
2023/03/31 03:25:47;;;;;;;1.50;1.30;;;;;;;9.62;77.67;101147.53;4973555;28;20045;-88
2023/03/31 03:28:12;;;;;;;3.15;2.30;;;;;;;9.68;77.89;101158.50;4990390;28;20472;-84
2023/03/31 03:30:38;;;;;;;2.40;1.65;;;;;;;9.70;76.62;101143.78;4990687;28;20116;-83
2023/03/31 03:33:05;;;;;;;2.80;2.03;;;;;;;9.73;76.88;101147.97;4991640;28;20076;-84
2023/03/31 03:35:32;;;;;;;7.20;1.23;;;;;;;9.43;76.07;101108.63;4959023;28;20140;-83
2023/03/31 03:37:57;;;;;;;2.53;1.88;;;;;;;9.68;75.58;101155.06;5007066;28;20400;-83
2023/03/31 03:40:23;;;;;;;3.40;1.83;;;;;;;9.72;76.21;101151.47;4958958;28;20030;-82
2023/03/31 03:42:48;;;;;;;3.17;2.38;;;;;;;9.62;76.51;101140.63;4974648;28;20038;-83
2023/03/31 03:45:14;;;;;;;2.20;1.30;;;;;;;9.61;76.10;101138.94;4974428;28;20476;-82
2023/03/31 03:47:39;;;;;;;2.92;1.58;;;;;;;9.59;76.01;101134.75;4991931;28;20061;-82
2023/03/31 03:50:05;;;;;;;2.35;1.73;;;;;;;9.71;75.86;101148.03;4990725;28;20038;-81
2023/03/31 03:52:31;;;;;;;2.75;1.98;;;;;;;9.60;75.79;101131.25;4990672;28;20030;-83
2023/03/31 03:54:56;;;;;;;2.90;1.85;;;;;;;9.73;75.44;101141.09;4990546;28;20038;-82
2023/03/31 03:57:22;;;;;;;3.13;1.95;;;;;;;9.67;75.80;101127.56;4958085;28;20023;-83
2023/03/31 03:59:47;;;;;;;2.95;2.13;;;;;;;9.54;75.42;101100.47;4989943;28;20038;-83
2023/03/31 04:02:13;;;;;;;2.65;2.10;;;;;;;9.77;75.09;101129.75;4990766;28;20026;-83
2023/03/31 04:04:38;;;;;;;3.50;1.65;;;;;;;9.74;74.58;101118.69;4974458;28;20108;-83
2023/03/31 04:07:04;;;;;;;2.97;2.20;;;;;;;9.88;73.93;101129.34;4955785;28;20045;-84
2023/03/31 04:09:29;;;;;;;3.55;2.40;;;;;;;9.87;73.63;101130.22;4990641;28;20026;-82
2023/03/31 04:11:55;;;;;;;3.45;2.15;;;;;;;9.80;74.47;101108.09;4974571;28;20030;-83
2023/03/31 04:14:20;;;;;;;7.70;2.42;;;;;;;9.77;74.70;101118.56;4973388;28;20026;-85
2023/03/31 04:16:49;;;;;;;1.95;1.65;;;;;;;9.70;74.66;101091.25;4990362;28;20409;-85
2023/03/31 04:19:20;;;;;;;3.70;1.92;;;;;;;9.80;74.71;101108.09;4973903;28;20034;-83
2023/03/31 04:21:49;;;;;;;2.53;2.33;;;;;;;9.77;75.22;101113.41;4959834;28;20466;-86
2023/03/31 04:24:20;;;;;;;4.05;2.13;;;;;;;9.81;75.58;101107.19;4984455;28;20762;-94
2023/03/31 04:26:49;;;;;;;3.10;1.95;;;;;;;9.83;76.29;101113.16;4964610;28;20171;-88
2023/03/31 04:29:15;;;;;;;3.58;2.28;;;;;;;9.76;75.87;101111.72;4965374;28;20034;-87
2023/03/31 04:31:41;;;;;;;3.05;1.63;;;;;;;9.83;75.95;101104.56;4943924;28;20049;-93
2023/03/31 04:34:14;;;;;;;2.13;1.58;;;;;;;9.81;75.68;101080.53;4954470;28;20031;-86
2023/03/31 04:36:41;;;;;;;3.95;2.35;;;;;;;9.98;75.29;101097.06;4978343;28;20054;-82
2023/03/31 04:39:09;;;;;;;3.10;2.10;;;;;;;9.67;75.49;101047.47;4957897;28;20042;-86
2023/03/31 04:41:35;;;;;;;6.40;2.92;;;;;;;9.88;75.68;101087.97;4990073;28;20502;-84
2023/03/31 04:44:00;;;;;;;6.22;3.30;;;;;;;9.74;75.71;101059.25;4989813;28;20027;-84
2023/03/31 04:46:26;;;;;;;4.15;2.95;;;;;;;9.94;76.16;101084.34;4989449;28;20030;-92
2023/03/31 04:48:52;;;;;;;8.18;4.38;;;;;;;10.01;76.01;101099.50;4956972;28;20097;-89
2023/03/31 04:51:19;;;;;;;4.68;3.38;;;;;;;9.89;75.21;101060.41;4990045;28;20050;-90
2023/03/31 04:53:45;;;;;;;8.35;4.18;;;;;;;10.06;75.23;101082.09;4990097;28;20031;-88
2023/03/31 04:56:11;;;;;;;6.35;4.35;;;;;;;10.18;75.37;101088.53;4986212;28;20034;-83
2023/03/31 04:58:36;;;;;;;4.78;4.07;;;;;;;10.29;75.28;101090.72;4972739;28;20475;-86
2023/03/31 05:01:02;;;;;;;6.35;3.28;;;;;;;10.48;74.37;101098.56;4970417;28;20037;-86
2023/03/31 05:03:27;;;;;;;4.95;2.78;;;;;;;10.44;73.80;101074.59;4955582;28;20030;-90
2023/03/31 05:05:53;;;;;;;3.10;2.50;;;;;;;10.67;73.09;101080.53;4970254;28;20069;-87
2023/03/31 05:08:19;;;;;;;6.75;3.00;;;;;;;10.93;73.23;101094.97;4986493;28;20083;-86
2023/03/31 05:11:05;;;;;;;3.58;2.53;;;;;;;11.09;72.33;101099.41;4972352;28;20072;-87
2023/03/31 05:13:30;;;;;;;3.30;2.28;;;;;;;11.02;71.36;101060.91;4985425;28;20058;-82
2023/03/31 05:15:55;;;;;;;3.67;2.63;;;;;;;11.29;71.54;101071.78;4971351;28;20404;-84
2023/03/31 05:18:21;;;;;;;5.95;1.70;;;;;;;11.51;69.28;101069.94;4984040;28;20040;-83
2023/03/31 05:20:46;;;;;;;4.05;2.60;;;;;;;11.80;70.27;101073.81;5003708;28;20085;-85
2023/03/31 05:23:12;;;;;;;7.88;4.07;;;;;;;11.95;69.17;101078.25;4972216;28;20488;-86
2023/03/31 05:25:37;;;;;;;5.20;2.83;;;;;;;12.02;67.66;101086.59;4971682;28;20027;-85
2023/03/31 05:28:03;;;;;;;6.53;2.55;;;;;;;12.11;65.91;101068.00;4988617;28;20034;-93
2023/03/31 05:30:29;;;;;;;2.65;2.28;;;;;;;12.34;64.89;101072.88;4990396;28;20511;-86
2023/03/31 05:32:54;;;;;;;5.68;2.90;;;;;;;12.50;66.08;101072.16;4988151;28;20053;-85
2023/03/31 05:35:20;;;;;;;3.28;2.40;;;;;;;12.57;66.19;101048.38;4988053;28;20473;-84
2023/03/31 05:37:45;;;;;;;6.80;2.47;;;;;;;12.53;64.29;101030.47;4997885;28;20416;-87
2023/03/31 05:40:11;;;;;;;3.50;2.70;;;;;;;12.71;65.58;101052.91;4973446;28;20034;-90
2023/03/31 05:42:37;;;;;;;4.25;2.97;;;;;;;12.74;64.96;101057.91;4980232;28;20109;-88
2023/03/31 05:45:03;;;;;;;3.55;2.45;;;;;;;12.82;65.27;101058.38;4990170;28;20552;-87
2023/03/31 05:47:28;;;;;;;14.48;2.13;;;;;;;12.74;65.67;101049.28;4988536;28;20389;-92
2023/03/31 05:49:54;;;;;;;8.18;2.80;;;;;;;12.84;64.91;101056.53;4989878;28;20034;-85
2023/03/31 05:52:19;;;;;;;4.30;2.83;;;;;;;12.80;64.64;101046.41;5006179;28;20038;-85
2023/03/31 05:54:45;;;;;;;3.35;2.30;;;;;;;12.83;65.05;101052.25;4992868;28;20034;-86
2023/03/31 05:57:10;;;;;;;5.88;3.13;;;;;;;12.72;66.82;101025.19;5000007;28;20037;-89
2023/03/31 05:59:37;;;;;;;8.85;4.53;;;;;;;12.82;65.92;101039.38;5012845;28;20484;-88
2023/03/31 06:02:03;;;;;;;9.65;4.25;;;;;;;12.83;66.56;101034.09;5012069;28;20061;-90
2023/03/31 06:04:28;;;;;;;4.85;3.05;;;;;;;12.90;66.73;101032.84;5011097;28;20029;-80
2023/03/31 06:06:54;;;;;;;7.45;2.97;;;;;;;13.01;65.67;101036.66;4997346;28;20412;-85
2023/03/31 06:09:20;;;;;;;5.50;2.92;;;;;;;12.96;65.22;101033.44;5007647;28;20041;-84
2023/03/31 06:11:46;;;;;;;9.73;4.07;;;;;;;13.03;65.46;101034.81;5005901;28;20030;-83
2023/03/31 06:14:11;;;;;;;11.13;3.33;;;;;;;13.01;65.66;101034.88;4994952;28;20348;-89
2023/03/31 06:16:37;;;;;;;7.35;3.00;;;;;;;12.77;65.44;100972.06;4991263;28;20030;-86
2023/03/31 06:19:02;;;;;;;7.35;3.85;;;;;;;13.02;64.11;101009.75;5012119;28;20060;-84
2023/03/31 06:21:28;;;;;;;8.63;3.47;;;;;;;13.18;63.49;101013.22;4998363;28;20026;-84
2023/03/31 06:23:57;;;;;;;7.72;3.80;;;;;;;13.20;64.04;101022.63;4972814;28;20470;-84
2023/03/31 06:26:22;;;;;;;11.65;2.90;;;;;;;13.31;62.67;101035.06;5010995;28;20030;-87
2023/03/31 06:28:48;;;;;;;4.10;3.08;;;;;;;13.35;62.63;101026.16;4985345;28;20031;-82
2023/03/31 06:31:21;;;;;;;8.48;2.85;;;;;;;13.45;62.95;101019.53;4982539;28;20026;-85
2023/03/31 06:33:46;;;;;;;17.13;3.95;;;;;;;13.60;63.73;101045.63;4984505;28;20145;-83
2023/03/31 06:36:13;;;;;;;10.60;3.88;;;;;;;13.44;63.10;101006.63;4976869;28;20062;-84
2023/03/31 06:38:39;;;;;;;1.35;1.15;;;;;;;13.70;62.36;101031.19;4996807;28;20117;-81
2023/03/31 06:41:05;;;;;;;3.63;2.42;;;;;;;13.93;61.05;101028.13;5010791;28;20037;-82
2023/03/31 06:43:31;;;;;;;4.32;2.60;;;;;;;13.96;60.75;101017.59;5010594;28;20026;-90
2023/03/31 06:45:56;;;;;;;6.40;3.25;;;;;;;14.07;60.36;101028.22;4992005;28;20034;-94
2023/03/31 06:48:22;;;;;;;4.05;2.47;;;;;;;13.98;59.96;101014.91;4963360;28;20488;-86
2023/03/31 06:50:48;;;;;;;3.40;2.72;;;;;;;14.00;60.08;101032.09;4981754;28;20030;-87
2023/03/31 06:53:13;;;;;;;5.97;3.00;;;;;;;13.98;60.46;101014.91;5010354;28;20049;-83
2023/03/31 06:55:39;;;;;;;2.60;2.40;;;;;;;14.06;60.50;101033.50;5004265;28;20030;-83
2023/03/31 06:58:05;;;;;;;5.88;2.95;;;;;;;14.15;60.37;101022.56;4981489;28;20027;-90
2023/03/31 07:00:31;;;;;;;8.98;4.38;;;;;;;14.15;59.53;101022.56;4993296;28;20196;-93
2023/03/31 07:02:56;;;;;;;5.18;3.20;;;;;;;14.09;59.72;101001.28;5001689;28;20034;-87
2023/03/31 07:05:28;;;;;;;5.70;3.17;;;;;;;14.26;58.66;101015.00;4980978;28;20144;-83
2023/03/31 07:07:54;;;;;;;3.17;1.67;;;;;;;14.28;59.53;100987.09;4984599;28;20034;-84
2023/03/31 07:10:20;;;;;;;2.42;1.52;;;;;;;14.51;58.67;101030.03;4995097;28;20084;-84
2023/03/31 07:12:45;;;;;;;13.25;5.15;;;;;;;14.70;58.81;101031.53;5009765;28;20030;-84
2023/03/31 07:15:11;;;;;;;7.13;3.10;;;;;;;14.81;57.96;101027.38;5010894;28;20084;-87
2023/03/31 07:17:36;;;;;;;6.35;3.10;;;;;;;14.80;58.01;100985.78;4959614;28;20066;-87
2023/03/31 07:20:03;;;;;;;4.75;2.55;;;;;;;15.03;56.57;101018.25;5006859;28;20037;-91
2023/03/31 07:22:29;;;;;;;3.05;2.10;;;;;;;15.27;57.75;101040.19;5000134;28;20037;-92
2023/03/31 07:24:54;;;;;;;3.55;2.63;;;;;;;15.28;56.44;101012.38;4993332;28;20026;-86
2023/03/31 07:27:20;;;;;;;9.13;4.05;;;;;;;15.34;56.87;101027.59;5011595;28;20113;-92
2023/03/31 07:29:45;;;;;;;3.88;2.38;;;;;;;15.41;56.67;101021.09;4994020;28;20033;-83
2023/03/31 07:32:11;;;;;;;2.88;2.25;;;;;;;15.67;57.20;101032.53;5003803;28;20144;-85
2023/03/31 07:34:37;;;;;;;9.15;3.38;;;;;;;15.61;55.95;101012.88;4987580;28;20443;-84
2023/03/31 07:37:03;;;;;;;12.57;4.30;;;;;;;15.80;55.90;101015.13;4992245;28;20471;-84
2023/03/31 07:39:28;;;;;;;4.35;2.70;;;;;;;15.68;55.29;101016.78;5008460;28;20022;-85
2023/03/31 07:41:54;;;;;;;6.53;3.70;;;;;;;15.89;55.18;101011.09;5012370;28;20034;-90
2023/03/31 07:44:20;;;;;;;4.57;2.67;;;;;;;16.04;53.49;101004.91;4988879;28;20456;-86
2023/03/31 07:46:46;;;;;;;4.30;2.70;;;;;;;16.20;53.96;101020.38;4978830;28;20459;-85
2023/03/31 07:49:14;;;;;;;14.00;4.10;;;;;;;16.11;52.80;100979.22;5009841;28;20037;-84
2023/03/31 07:51:40;;;;;;;9.43;4.03;;;;;;;16.42;52.69;100998.88;5007937;28;20049;-88
2023/03/31 07:54:05;;;;;;;5.60;3.03;;;;;;;16.58;52.77;101025.63;4992371;28;20076;-84
2023/03/31 07:56:31;;;;;;;4.07;2.60;;;;;;;16.57;51.75;101016.13;5006295;28;20062;-82
2023/03/31 07:58:56;;;;;;;6.90;3.30;;;;;;;16.55;51.32;100989.28;4992694;28;20030;-83
2023/03/31 08:01:24;;;;;;;7.78;3.85;;;;;;;16.78;50.22;101006.84;4992106;28;20108;-92
2023/03/31 08:03:51;;;;;;;2.28;1.52;;;;;;;16.64;49.63;101001.72;5009273;28;20407;-93
2023/03/31 08:06:23;;;;;;;12.90;3.72;;;;;;;16.50;50.16;100980.91;4990032;28;20030;-85
2023/03/31 08:08:49;;;;;;;6.63;3.42;;;;;;;16.62;50.87;101011.44;5009007;28;20042;-90
2023/03/31 08:11:15;;;;;;;9.15;2.97;;;;;;;16.54;50.03;101013.75;4979133;28;20033;-83
2023/03/31 08:13:41;;;;;;;6.35;3.40;;;;;;;16.41;50.58;101023.31;4979164;28;20101;-86
2023/03/31 08:16:06;;;;;;;4.35;3.42;;;;;;;16.34;50.58;101022.91;4985757;28;20452;-90
2023/03/31 08:18:32;;;;;;;8.52;4.15;;;;;;;16.34;50.92;101018.53;4993437;28;20109;-85
2023/03/31 08:20:57;;;;;;;5.07;3.20;;;;;;;16.35;52.56;101027.19;4982679;28;20022;-91
2023/03/31 08:23:23;;;;;;;3.55;1.55;;;;;;;16.23;51.26;101009.75;4983095;28;20030;-84
2023/03/31 08:25:48;;;;;;;5.50;3.30;;;;;;;16.31;50.97;101028.31;4997091;28;20062;-94
2023/03/31 08:28:14;;;;;;;6.00;3.67;;;;;;;16.46;50.18;101026.47;4986795;28;20519;-84
2023/03/31 08:30:40;;;;;;;15.43;2.50;;;;;;;16.29;51.78;101014.53;5009415;28;20026;-83
2023/03/31 08:33:06;;;;;;;11.18;4.72;;;;;;;16.47;52.22;101015.91;4999014;28;20026;-89
2023/03/31 08:35:33;;;;;;;6.65;3.97;;;;;;;16.60;50.93;101002.84;4997350;28;20562;-82
2023/03/31 08:37:59;;;;;;;9.43;5.28;;;;;;;16.81;50.37;100991.00;5000674;28;20475;-88
2023/03/31 08:40:25;;;;;;;3.75;2.03;;;;;;;17.09;50.04;101008.19;5004053;28;20061;-87
2023/03/31 08:42:52;;;;;;;6.22;3.25;;;;;;;17.51;50.15;101013.94;4959129;28;20030;-81
2023/03/31 08:45:22;;;;;;;6.43;3.78;;;;;;;17.81;48.44;101016.16;4995005;28;20026;-85
2023/03/31 08:47:51;;;;;;;3.38;1.75;;;;;;;17.51;48.44;101002.66;4999157;28;20057;-82
2023/03/31 08:50:19;;;;;;;8.73;3.80;;;;;;;17.73;48.44;100994.94;5002286;28;20487;-81
2023/03/31 08:52:49;;;;;;;7.45;4.80;;;;;;;17.76;48.61;100999.94;4963549;28;20030;-85
2023/03/31 08:55:28;;;;;;;11.50;4.53;;;;;;;17.93;47.77;100998.72;4992514;28;20037;-85
2023/03/31 08:58:12;;;;;;;6.97;3.25;;;;;;;17.95;47.99;101008.13;4992144;28;20098;-83
2023/03/31 09:01:03;;;;;;;3.88;2.53;;;;;;;18.02;47.23;100995.41;4991260;28;20149;-83
2023/03/31 09:03:47;;;;;;;3.70;2.30;;;;;;;17.84;47.10;100999.38;4977480;28;20121;-84
2023/03/31 09:06:20;;;;;;;8.70;2.70;;;;;;;17.49;47.49;100969.56;5002315;28;20035;-86
2023/03/31 09:08:45;;;;;;;5.85;2.95;;;;;;;17.54;46.56;100971.03;4992905;28;20628;-90
2023/03/31 09:11:21;;;;;;;5.90;3.15;;;;;;;17.71;46.48;100991.59;5008851;28;20084;-93
2023/03/31 09:13:53;;;;;;;5.93;3.15;;;;;;;17.69;47.39;100973.38;4996192;28;20061;-89
2023/03/31 09:16:50;;;;;;;6.28;3.38;;;;;;;17.60;46.69;100999.34;5006541;28;20396;-82
2023/03/31 09:19:40;;;;;;;4.90;2.83;;;;;;;17.81;47.17;100992.59;4994930;28;20030;-84
2023/03/31 09:22:10;;;;;;;5.65;3.90;;;;;;;17.77;46.52;100988.53;4974495;28;20589;-86
2023/03/31 09:24:45;;;;;;;7.38;3.97;;;;;;;17.58;47.58;100959.38;4964592;28;20080;-83
2023/03/31 09:27:11;;;;;;;7.25;4.05;;;;;;;17.82;47.86;100955.00;4995251;28;20057;-83
2023/03/31 09:29:56;;;;;;;4.25;2.88;;;;;;;18.06;46.42;100971.50;4994483;28;20061;-85
2023/03/31 09:32:24;;;;;;;5.35;2.50;;;;;;;18.30;46.14;100975.84;4987555;28;20058;-94
2023/03/31 09:34:51;;;;;;;2.97;2.15;;;;;;;18.21;45.04;100969.53;4996528;28;20057;-83
2023/03/31 09:37:17;;;;;;;2.63;2.05;;;;;;;18.23;45.81;100922.28;5011424;28;20030;-82
2023/03/31 09:39:42;;;;;;;4.57;2.53;;;;;;;18.36;44.23;100962.28;4983676;28;20030;-86
2023/03/31 09:42:11;;;;;;;2.83;1.55;;;;;;;18.44;44.64;100954.69;4977887;28;20554;-86
2023/03/31 09:44:37;;;;;;;3.35;2.30;;;;;;;18.56;44.31;100945.88;4976015;28;20031;-88
2023/03/31 09:47:05;;;;;;;6.50;3.63;;;;;;;18.67;43.62;100944.22;4978085;28;20121;-87
2023/03/31 09:49:33;;;;;;;2.45;2.03;;;;;;;18.81;44.11;100946.63;4976224;28;20056;-87
2023/03/31 09:52:19;;;;;;;3.90;2.70;;;;;;;18.84;43.31;100933.28;4994613;28;20491;-83
2023/03/31 09:54:52;;;;;;;3.83;2.13;;;;;;;18.91;43.53;100921.34;4969052;28;20034;-82
2023/03/31 09:57:31;;;;;;;4.93;3.08;;;;;;;18.70;43.45;100897.69;4978585;28;20031;-83
2023/03/31 10:00:17;;;;;;;8.55;3.55;;;;;;;19.06;42.95;100919.28;5003616;28;20030;-87
2023/03/31 10:02:50;;;;;;;2.85;2.40;;;;;;;19.12;43.10;100924.88;5010167;28;20022;-86
2023/03/31 10:05:22;;;;;;;2.92;1.98;;;;;;;19.24;42.30;100927.47;4974386;28;20090;-88
2023/03/31 10:07:47;;;;;;;5.77;2.97;;;;;;;18.76;42.44;100876.22;4991899;28;20031;-89
2023/03/31 10:10:27;;;;;;;6.07;3.22;;;;;;;19.19;43.15;100905.09;4960049;28;20038;-90
2023/03/31 10:12:53;;;;;;;3.28;2.13;;;;;;;19.41;41.79;100909.41;4960528;28;20113;-85
2023/03/31 10:15:21;;;;;;;6.05;3.42;;;;;;;19.46;40.76;100898.53;4982254;28;20042;-91
2023/03/31 10:17:46;;;;;;;4.20;2.28;;;;;;;19.41;40.43;100887.59;4981858;28;20034;-89
2023/03/31 10:20:37;;;;;;;6.68;3.10;;;;;;;19.46;40.66;100885.41;4968713;28;20031;-92
2023/03/31 10:23:21;;;;;;;4.38;2.40;;;;;;;19.50;41.10;100894.72;5005005;28;20030;-83
2023/03/31 10:25:47;;;;;;;3.92;2.67;;;;;;;19.67;40.41;100878.47;4989032;28;20042;-86
2023/03/31 10:28:15;;;;;;;7.05;3.30;;;;;;;19.70;39.90;100869.50;4991148;28;20392;-86
2023/03/31 10:30:40;;;;;;;10.30;4.90;;;;;;;19.60;39.72;100855.47;4973903;28;20026;-87
2023/03/31 10:33:12;;;;;;;9.38;4.65;;;;;;;19.86;38.83;100869.88;4972498;28;20085;-86
2023/03/31 10:35:37;;;;;;;2.85;1.98;;;;;;;19.53;39.07;100815.75;4989450;28;20539;-88
2023/03/31 10:38:09;;;;;;;7.10;3.40;;;;;;;19.81;38.97;100861.53;4991085;28;20031;-92
2023/03/31 10:40:35;;;;;;;4.38;2.92;;;;;;;20.13;39.73;100845.69;4977039;28;20081;-84
2023/03/31 10:43:15;;;;;;;7.13;3.95;;;;;;;20.41;38.29;100845.94;4969721;28;20031;-90
2023/03/31 10:45:43;;;;;;;4.72;3.35;;;;;;;20.59;37.35;100857.50;4958887;28;20421;-86
2023/03/31 10:48:24;;;;;;;16.00;2.35;;;;;;;20.04;37.81;100855.16;4972662;28;20022;-85
2023/03/31 10:50:49;;;;;;;4.10;2.80;;;;;;;19.93;38.07;100855.25;4990589;28;20626;-91
2023/03/31 10:53:15;;;;;;;4.05;2.10;;;;;;;19.52;38.61;100842.94;4974011;28;20117;-86
2023/03/31 10:55:55;;;;;;;7.22;3.72;;;;;;;19.79;38.70;100849.50;4973905;28;20034;-87
2023/03/31 10:58:36;;;;;;;4.47;1.98;;;;;;;19.83;39.81;100850.91;4974602;28;20066;-86
2023/03/31 11:01:23;;;;;;;3.53;2.80;;;;;;;19.95;39.29;100840.19;4990962;28;20026;-87
2023/03/31 11:03:58;;;;;;;5.78;3.25;;;;;;;19.74;37.97;100806.09;4986449;28;20135;-88
2023/03/31 11:06:41;;;;;;;4.25;2.72;;;;;;;20.24;37.81;100852.63;4957065;28;20038;-86
2023/03/31 11:09:16;;;;;;;7.05;3.22;;;;;;;20.15;37.87;100803.53;4990579;28;20218;-87
2023/03/31 11:11:51;;;;;;;5.68;2.97;;;;;;;20.33;37.22;100818.53;4987347;28;20104;-83
2023/03/31 11:14:24;;;;;;;5.03;2.65;;;;;;;20.43;36.75;100815.97;4982440;28;20037;-87
2023/03/31 11:16:55;;;;;;;5.70;2.28;;;;;;;20.74;36.83;100827.22;4983261;28;20046;-84
2023/03/31 11:19:39;;;;;;;4.83;2.93;;;;;;;20.70;36.29;100812.72;4982842;28;20030;-82
2023/03/31 11:22:13;;;;;;;3.00;1.60;;;;;;;20.66;35.64;100808.72;4987362;28;20034;-82
2023/03/31 11:24:53;;;;;;;4.43;2.97;;;;;;;20.80;36.30;100813.56;4980273;28;20136;-82
2023/03/31 11:27:56;;;;;;;4.13;2.35;;;;;;;20.74;36.16;100795.69;4972008;28;20093;-83
2023/03/31 11:30:28;;;;;;;3.92;1.00;;;;;;;20.49;36.67;100798.84;4971364;28;20074;-84
2023/03/31 11:33:03;;;;;;;7.57;3.67;;;;;;;21.00;36.53;100798.63;4987083;28;20037;-85
2023/03/31 11:35:44;;;;;;;2.40;1.83;;;;;;;21.02;35.62;100782.69;4980578;28;20050;-88
2023/03/31 11:38:47;;;;;;;6.10;2.47;;;;;;;21.14;34.89;100776.34;4989572;28;20488;-85
2023/03/31 11:41:14;;;;;;;3.72;2.45;;;;;;;21.08;36.34;100766.38;4994426;28;20030;-93
2023/03/31 11:43:46;;;;;;;6.45;2.72;;;;;;;21.13;35.25;100767.59;4993053;28;20061;-80